sensor_id;sensor_type;location;lat;lon;timestamp;pressure;altitude;pressure_sealevel;temperature;humidity
62524;BME280;53689;56.878;60.672;2023-04-02T00:01:19;98768.91;;;23.27;21.82
62524;BME280;53689;56.878;60.672;2023-04-02T00:06:45;98761.81;;;23.26;21.64
62524;BME280;53689;56.878;60.672;2023-04-02T00:11:57;98763.03;;;23.23;20.96
62524;BME280;53689;56.878;60.672;2023-04-02T00:14:26;98763.91;;;23.24;22.40
62524;BME280;53689;56.878;60.672;2023-04-02T00:16:54;98770.31;;;23.23;21.63
62524;BME280;53689;56.878;60.672;2023-04-02T00:19:23;98773.00;;;23.23;21.88
62524;BME280;53689;56.878;60.672;2023-04-02T00:21:53;98774.25;;;23.20;20.87
62524;BME280;53689;56.878;60.672;2023-04-02T00:24:23;98772.38;;;23.21;21.84
62524;BME280;53689;56.878;60.672;2023-04-02T00:26:51;98770.31;;;23.23;22.21
62524;BME280;53689;56.878;60.672;2023-04-02T00:29:19;98772.38;;;23.21;22.16
62524;BME280;53689;56.878;60.672;2023-04-02T00:31:47;98766.16;;;23.20;21.96
62524;BME280;53689;56.878;60.672;2023-04-02T00:34:16;98772.38;;;23.21;21.78
62524;BME280;53689;56.878;60.672;2023-04-02T00:36:45;98769.47;;;23.22;21.80
62524;BME280;53689;56.878;60.672;2023-04-02T00:39:17;98767.81;;;23.21;22.15
62524;BME280;53689;56.878;60.672;2023-04-02T00:41:44;98766.16;;;23.20;21.98
62524;BME280;53689;56.878;60.672;2023-04-02T00:44:12;98775.06;;;23.21;22.27
62524;BME280;53689;56.878;60.672;2023-04-02T00:46:41;98775.91;;;23.21;22.21
62524;BME280;53689;56.878;60.672;2023-04-02T00:49:09;98776.09;;;23.20;21.75
62524;BME280;53689;56.878;60.672;2023-04-02T00:51:39;98788.56;;;23.21;22.11
62524;BME280;53689;56.878;60.672;2023-04-02T00:54:11;98779.84;;;23.19;22.21
62524;BME280;53689;56.878;60.672;2023-04-02T00:56:41;98778.81;;;23.20;21.53
62524;BME280;53689;56.878;60.672;2023-04-02T00:59:15;98782.53;;;23.19;22.02
62524;BME280;53689;56.878;60.672;2023-04-02T01:01:44;98780.03;;;23.17;22.10
62524;BME280;53689;56.878;60.672;2023-04-02T01:04:25;98782.09;;;23.15;22.19
62524;BME280;53689;56.878;60.672;2023-04-02T01:06:53;98781.06;;;23.16;22.56
62524;BME280;53689;56.878;60.672;2023-04-02T01:09:23;98781.06;;;23.16;21.45
62524;BME280;53689;56.878;60.672;2023-04-02T01:12:05;98774.19;;;23.13;22.11
62524;BME280;53689;56.878;60.672;2023-04-02T01:14:38;98778.75;;;23.13;21.53
62524;BME280;53689;56.878;60.672;2023-04-02T01:17:11;98777.72;;;23.14;22.37
62524;BME280;53689;56.878;60.672;2023-04-02T01:19:48;98779.56;;;23.13;21.67
62524;BME280;53689;56.878;60.672;2023-04-02T01:22:20;98773.53;;;23.11;21.99
62524;BME280;53689;56.878;60.672;2023-04-02T01:24:48;98781.00;;;23.09;21.45
62524;BME280;53689;56.878;60.672;2023-04-02T01:27:17;98775.78;;;23.08;22.59
62524;BME280;53689;56.878;60.672;2023-04-02T01:29:49;98780.81;;;23.11;22.60
62524;BME280;53689;56.878;60.672;2023-04-02T01:32:19;98784.16;;;23.13;23.06
62524;BME280;53689;56.878;60.672;2023-04-02T01:34:48;98783.72;;;23.09;22.43
62524;BME280;53689;56.878;60.672;2023-04-02T01:37:19;98784.34;;;23.11;22.74
62524;BME280;53689;56.878;60.672;2023-04-02T01:39:54;98783.53;;;23.11;22.58
62524;BME280;53689;56.878;60.672;2023-04-02T01:42:27;98787.25;;;23.10;22.52
62524;BME280;53689;56.878;60.672;2023-04-02T01:45:00;98787.44;;;23.08;22.38
62524;BME280;53689;56.878;60.672;2023-04-02T01:47:28;98784.56;;;23.10;22.08
62524;BME280;53689;56.878;60.672;2023-04-02T01:49:56;98782.88;;;23.09;21.92
62524;BME280;53689;56.878;60.672;2023-04-02T01:52:25;98790.16;;;23.08;21.83
62524;BME280;53689;56.878;60.672;2023-04-02T01:55:00;98788.09;;;23.10;22.08
62524;BME280;53689;56.878;60.672;2023-04-02T01:57:28;98784.75;;;23.08;22.39
62524;BME280;53689;56.878;60.672;2023-04-02T01:59:55;98792.44;;;23.11;21.66
62524;BME280;53689;56.878;60.672;2023-04-02T02:02:24;98790.59;;;23.12;21.50
62524;BME280;53689;56.878;60.672;2023-04-02T02:04:52;98793.75;;;23.16;21.67
62524;BME280;53689;56.878;60.672;2023-04-02T02:07:19;98792.31;;;23.20;21.86
62524;BME280;53689;56.878;60.672;2023-04-02T02:09:51;98794.75;;;23.36;21.47
62524;BME280;53689;56.878;60.672;2023-04-02T02:12:19;98796.84;;;23.34;22.07
62524;BME280;53689;56.878;60.672;2023-04-02T02:14:46;98796.16;;;23.32;21.75
62524;BME280;53689;56.878;60.672;2023-04-02T02:17:14;98801.97;;;23.29;21.87
62524;BME280;53689;56.878;60.672;2023-04-02T02:19:44;98806.91;;;23.25;21.51
62524;BME280;53689;56.878;60.672;2023-04-02T02:22:13;98806.00;;;23.18;22.23
62524;BME280;53689;56.878;60.672;2023-04-02T02:24:43;98803.69;;;23.15;22.19
62524;BME280;53689;56.878;60.672;2023-04-02T02:30:03;98812.66;;;23.16;21.96
62524;BME280;53689;56.878;60.672;2023-04-02T02:32:33;98812.00;;;23.13;22.05
62524;BME280;53689;56.878;60.672;2023-04-02T02:35:06;98815.72;;;23.12;22.27
62524;BME280;53689;56.878;60.672;2023-04-02T02:37:39;98812.00;;;23.13;22.01
62524;BME280;53689;56.878;60.672;2023-04-02T02:40:10;98808.03;;;23.09;22.12
62524;BME280;53689;56.878;60.672;2023-04-02T02:42:39;98810.53;;;23.11;21.73
62524;BME280;53689;56.878;60.672;2023-04-02T02:45:10;98815.72;;;23.12;22.13
62524;BME280;53689;56.878;60.672;2023-04-02T02:47:39;98813.25;;;23.11;22.05
62524;BME280;53689;56.878;60.672;2023-04-02T02:50:12;98816.75;;;23.11;21.85
62524;BME280;53689;56.878;60.672;2023-04-02T02:52:45;98812.38;;;23.10;22.17
62524;BME280;53689;56.878;60.672;2023-04-02T02:55:14;98809.69;;;23.10;22.04
62524;BME280;53689;56.878;60.672;2023-04-02T02:57:49;98811.56;;;23.10;22.21
62524;BME280;53689;56.878;60.672;2023-04-02T03:00:18;98809.69;;;23.10;22.11
62524;BME280;53689;56.878;60.672;2023-04-02T03:02:46;98802.44;;;23.11;21.86
62524;BME280;53689;56.878;60.672;2023-04-02T03:05:17;98802.22;;;23.12;21.99
62524;BME280;53689;56.878;60.672;2023-04-02T03:07:49;98809.69;;;23.10;22.02
62524;BME280;53689;56.878;60.672;2023-04-02T03:10:18;98808.88;;;23.10;22.21
62524;BME280;53689;56.878;60.672;2023-04-02T03:12:48;98806.16;;;23.10;21.85
62524;BME280;53689;56.878;60.672;2023-04-02T03:15:20;98814.28;;;23.10;22.46
62524;BME280;53689;56.878;60.672;2023-04-02T03:17:50;98805.97;;;22.90;22.65
62524;BME280;53689;56.878;60.672;2023-04-02T03:20:23;98813.50;;;22.94;22.64
62524;BME280;53689;56.878;60.672;2023-04-02T03:22:52;98813.38;;;23.03;22.41
62524;BME280;53689;56.878;60.672;2023-04-02T03:25:24;98814.00;;;23.05;22.32
62524;BME280;53689;56.878;60.672;2023-04-02T03:27:57;98814.00;;;23.05;21.82
62524;BME280;53689;56.878;60.672;2023-04-02T03:30:27;98822.75;;;23.07;22.51
62524;BME280;53689;56.878;60.672;2023-04-02T03:32:58;98823.59;;;23.07;22.73
62524;BME280;53689;56.878;60.672;2023-04-02T03:35:30;98820.88;;;23.07;22.22
62524;BME280;53689;56.878;60.672;2023-04-02T03:38:00;98818.19;;;23.07;21.93
62524;BME280;53689;56.878;60.672;2023-04-02T03:40:30;98818.19;;;23.07;22.12
62524;BME280;53689;56.878;60.672;2023-04-02T03:43:01;98825.44;;;23.07;22.00
62524;BME280;53689;56.878;60.672;2023-04-02T03:45:31;98819.84;;;23.08;21.82
62524;BME280;53689;56.878;60.672;2023-04-02T03:48:02;98811.75;;;23.08;22.40
62524;BME280;53689;56.878;60.672;2023-04-02T03:50:34;98821.53;;;23.09;22.45
62524;BME280;53689;56.878;60.672;2023-04-02T03:53:04;98824.41;;;23.08;22.57
62524;BME280;53689;56.878;60.672;2023-04-02T03:55:32;98814.47;;;23.08;22.38
62524;BME280;53689;56.878;60.672;2023-04-02T03:58:02;98824.22;;;23.09;22.34
62524;BME280;53689;56.878;60.672;2023-04-02T04:00:34;98835.66;;;23.11;22.56
62524;BME280;53689;56.878;60.672;2023-04-02T04:03:05;98827.56;;;23.11;22.63
62524;BME280;53689;56.878;60.672;2023-04-02T04:05:38;98825.91;;;23.10;22.21
62524;BME280;53689;56.878;60.672;2023-04-02T04:08:12;98827.56;;;23.11;22.74
62524;BME280;53689;56.878;60.672;2023-04-02T04:10:41;98824.03;;;23.11;22.74
62524;BME280;53689;56.878;60.672;2023-04-02T04:13:11;98825.91;;;23.10;22.44
62524;BME280;53689;56.878;60.672;2023-04-02T04:15:40;98828.59;;;23.10;22.22
62524;BME280;53689;56.878;60.672;2023-04-02T04:18:11;98824.84;;;23.11;22.06
62524;BME280;53689;56.878;60.672;2023-04-02T04:20:46;98822.78;;;23.13;22.37
62524;BME280;53689;56.878;60.672;2023-04-02T04:23:17;98823.66;;;23.14;22.30
62524;BME280;53689;56.878;60.672;2023-04-02T04:25:45;98823.47;;;23.16;22.46
62524;BME280;53689;56.878;60.672;2023-04-02T04:28:18;98826.97;;;23.16;22.45
62524;BME280;53689;56.878;60.672;2023-04-02T04:30:48;98824.28;;;23.16;21.55
62524;BME280;53689;56.878;60.672;2023-04-02T04:33:19;98833.22;;;23.17;22.60
62524;BME280;53689;56.878;60.672;2023-04-02T04:35:53;98829.88;;;23.14;22.31
62524;BME280;53689;56.878;60.672;2023-04-02T04:38:28;98831.75;;;23.14;22.32
62524;BME280;53689;56.878;60.672;2023-04-02T04:40:57;98831.75;;;23.14;22.63
62524;BME280;53689;56.878;60.672;2023-04-02T04:43:31;98829.03;;;23.14;22.26
62524;BME280;53689;56.878;60.672;2023-04-02T04:46:02;98825.31;;;23.15;22.41
62524;BME280;53689;56.878;60.672;2023-04-02T04:48:32;98831.56;;;23.16;22.44
62524;BME280;53689;56.878;60.672;2023-04-02T04:51:06;98824.69;;;23.13;22.29
62524;BME280;53689;56.878;60.672;2023-04-02T04:53:34;98827.19;;;23.14;22.01
62524;BME280;53689;56.878;60.672;2023-04-02T04:56:11;98827.81;;;23.17;22.54
62524;BME280;53689;56.878;60.672;2023-04-02T04:58:50;98823.66;;;23.14;22.67
62524;BME280;53689;56.878;60.672;2023-04-02T05:01:20;98820.75;;;23.16;22.69
62524;BME280;53689;56.878;60.672;2023-04-02T05:03:50;98825.94;;;23.17;22.51
62524;BME280;53689;56.878;60.672;2023-04-02T05:06:22;98824.09;;;23.18;22.61
62524;BME280;53689;56.878;60.672;2023-04-02T05:08:50;98823.91;;;23.19;22.67
62524;BME280;53689;56.878;60.672;2023-04-02T05:11:20;98827.44;;;23.20;22.56
62524;BME280;53689;56.878;60.672;2023-04-02T05:13:51;98827.44;;;23.20;22.86
62524;BME280;53689;56.878;60.672;2023-04-02T05:16:22;98821.22;;;23.19;22.43
62524;BME280;53689;56.878;60.672;2023-04-02T05:18:53;98822.88;;;23.20;21.92
62524;BME280;53689;56.878;60.672;2023-04-02T05:21:25;98824.72;;;23.20;22.08
62524;BME280;53689;56.878;60.672;2023-04-02T05:23:53;98829.09;;;23.21;22.80
62524;BME280;53689;56.878;60.672;2023-04-02T05:26:27;98829.94;;;23.21;22.73
62524;BME280;53689;56.878;60.672;2023-04-02T05:28:58;98832.66;;;23.21;22.38
62524;BME280;53689;56.878;60.672;2023-04-02T05:31:27;98829.09;;;23.21;22.10
62524;BME280;53689;56.878;60.672;2023-04-02T05:33:57;98833.47;;;23.22;22.89
62524;BME280;53689;56.878;60.672;2023-04-02T05:36:26;98829.09;;;23.21;22.41
62524;BME280;53689;56.878;60.672;2023-04-02T05:38:57;98822.88;;;23.20;21.96
62524;BME280;53689;56.878;60.672;2023-04-02T05:41:38;98827.25;;;23.21;22.28
62524;BME280;53689;56.878;60.672;2023-04-02T05:44:09;98818.91;;;23.23;22.39
62524;BME280;53689;56.878;60.672;2023-04-02T05:46:40;98823.50;;;23.22;22.69
62524;BME280;53689;56.878;60.672;2023-04-02T05:49:12;98820.81;;;23.22;22.42
62524;BME280;53689;56.878;60.672;2023-04-02T05:51:48;98826.84;;;23.24;22.40
62524;BME280;53689;56.878;60.672;2023-04-02T05:54:18;98826.66;;;23.26;21.82
62524;BME280;53689;56.878;60.672;2023-04-02T05:56:53;98826.44;;;23.27;21.69
62524;BME280;53689;56.878;60.672;2023-04-02T05:59:25;98829.63;;;23.31;22.06
62524;BME280;53689;56.878;60.672;2023-04-02T06:01:56;98835.03;;;23.31;22.07
62524;BME280;53689;56.878;60.672;2023-04-02T06:04:32;98832.97;;;23.33;22.39
62524;BME280;53689;56.878;60.672;2023-04-02T06:07:03;98829.44;;;23.33;22.03
62524;BME280;53689;56.878;60.672;2023-04-02T06:09:36;98828.41;;;23.34;22.32
62524;BME280;53689;56.878;60.672;2023-04-02T06:12:18;98830.91;;;23.35;21.89
62524;BME280;53689;56.878;60.672;2023-04-02T06:14:50;98836.09;;;23.37;22.39
62524;BME280;53689;56.878;60.672;2023-04-02T06:17:18;98838.00;;;23.36;21.46
62524;BME280;53689;56.878;60.672;2023-04-02T06:19:47;98833.22;;;23.38;21.91
62524;BME280;53689;56.878;60.672;2023-04-02T06:22:19;98828.44;;;23.40;21.88
62524;BME280;53689;56.878;60.672;2023-04-02T06:24:55;98833.06;;;23.47;21.53
62524;BME280;53689;56.878;60.672;2023-04-02T06:27:24;98838.47;;;23.47;21.06
62524;BME280;53689;56.878;60.672;2023-04-02T06:29:53;98832.22;;;23.46;21.89
62524;BME280;53689;56.878;60.672;2023-04-02T06:32:24;98836.81;;;23.46;21.50
62524;BME280;53689;56.878;60.672;2023-04-02T06:34:52;98841.00;;;23.48;21.86
62524;BME280;53689;56.878;60.672;2023-04-02T06:37:22;98842.22;;;23.46;21.85
62524;BME280;53689;56.878;60.672;2023-04-02T06:40:03;98832.88;;;23.48;21.40
62524;BME280;53689;56.878;60.672;2023-04-02T06:42:33;98837.03;;;23.51;21.79
62524;BME280;53689;56.878;60.672;2023-04-02T06:45:12;98835.59;;;23.48;22.37
62524;BME280;53689;56.878;60.672;2023-04-02T06:47:45;98821.03;;;23.49;22.20
62524;BME280;53689;56.878;60.672;2023-04-02T06:50:27;98828.16;;;23.57;22.27
62524;BME280;53689;56.878;60.672;2023-04-02T06:53:00;98832.31;;;23.53;21.87
62524;BME280;53689;56.878;60.672;2023-04-02T06:55:30;98825.47;;;23.57;21.42
62524;BME280;53689;56.878;60.672;2023-04-02T06:58:00;98833.38;;;23.59;21.92
62524;BME280;53689;56.878;60.672;2023-04-02T07:00:29;98829.41;;;23.61;21.86
62524;BME280;53689;56.878;60.672;2023-04-02T07:03:04;98827.97;;;23.59;21.67
62524;BME280;53689;56.878;60.672;2023-04-02T07:05:32;98827.91;;;23.52;22.59
62524;BME280;53689;56.878;60.672;2023-04-02T07:08:02;98822.50;;;23.52;22.47
62524;BME280;53689;56.878;60.672;2023-04-02T07:10:30;98820.69;;;23.59;21.82
62524;BME280;53689;56.878;60.672;2023-04-02T07:12:58;98816.13;;;23.60;21.89
62524;BME280;53689;56.878;60.672;2023-04-02T07:15:25;98819.50;;;23.68;21.35
62524;BME280;53689;56.878;60.672;2023-04-02T07:17:53;98820.53;;;23.67;21.59
62524;BME280;53689;56.878;60.672;2023-04-02T07:20:23;98820.97;;;23.71;21.30
62524;BME280;53689;56.878;60.672;2023-04-02T07:22:52;98813.28;;;23.68;21.80
62524;BME280;53689;56.878;60.672;2023-04-02T07:25:21;98809.31;;;23.70;21.52
62524;BME280;53689;56.878;60.672;2023-04-02T07:27:50;98821.56;;;23.66;22.06
62524;BME280;53689;56.878;60.672;2023-04-02T07:30:18;98819.94;;;23.72;21.83
62524;BME280;53689;56.878;60.672;2023-04-02T07:32:46;98812.88;;;23.71;21.92
62524;BME280;53689;56.878;60.672;2023-04-02T07:35:14;98822.03;;;23.77;21.63
62524;BME280;53689;56.878;60.672;2023-04-02T07:37:42;98818.31;;;23.78;21.14
62524;BME280;53689;56.878;60.672;2023-04-02T07:40:14;98811.22;;;23.77;21.64
62524;BME280;53689;56.878;60.672;2023-04-02T07:42:44;98812.91;;;23.78;21.74
62524;BME280;53689;56.878;60.672;2023-04-02T07:45:11;98812.53;;;23.81;21.50
62524;BME280;53689;56.878;60.672;2023-04-02T07:47:39;98814.81;;;23.84;21.14
62524;BME280;53689;56.878;60.672;2023-04-02T07:50:07;98802.94;;;23.78;21.47
62524;BME280;53689;56.878;60.672;2023-04-02T07:52:37;98804.41;;;23.81;21.44
62524;BME280;53689;56.878;60.672;2023-04-02T07:55:06;98814.13;;;23.75;21.32
62524;BME280;53689;56.878;60.672;2023-04-02T07:57:36;98805.59;;;23.72;21.90
62524;BME280;53689;56.878;60.672;2023-04-02T08:00:06;98807.50;;;23.78;21.64
62524;BME280;53689;56.878;60.672;2023-04-02T08:02:37;98796.91;;;23.76;21.78
62524;BME280;53689;56.878;60.672;2023-04-02T08:05:05;98787.53;;;23.79;21.51
62524;BME280;53689;56.878;60.672;2023-04-02T08:07:33;98789.63;;;23.83;21.35
62524;BME280;53689;56.878;60.672;2023-04-02T08:10:01;98794.34;;;23.68;21.78
62524;BME280;53689;56.878;60.672;2023-04-02T08:12:28;98786.09;;;23.76;21.71
62524;BME280;53689;56.878;60.672;2023-04-02T08:14:55;98785.19;;;23.69;22.03
62524;BME280;53689;56.878;60.672;2023-04-02T08:17:24;98787.06;;;23.68;21.81
62524;BME280;53689;56.878;60.672;2023-04-02T08:19:51;98790.84;;;23.74;21.32
62524;BME280;53689;56.878;60.672;2023-04-02T08:22:21;98782.88;;;23.66;21.65
62524;BME280;53689;56.878;60.672;2023-04-02T08:24:48;98783.75;;;23.73;21.57
62524;BME280;53689;56.878;60.672;2023-04-02T08:27:15;98784.59;;;23.74;21.20
62524;BME280;53689;56.878;60.672;2023-04-02T08:29:43;98781.91;;;23.74;21.35
62524;BME280;53689;56.878;60.672;2023-04-02T08:32:10;98791.69;;;23.75;21.22
62524;BME280;53689;56.878;60.672;2023-04-02T08:34:40;98772.50;;;23.69;21.36
62524;BME280;53689;56.878;60.672;2023-04-02T08:37:08;98773.47;;;23.90;20.65
62524;BME280;53689;56.878;60.672;2023-04-02T08:39:36;98777.13;;;23.76;21.29
62524;BME280;53689;56.878;60.672;2023-04-02T08:42:04;98773.78;;;23.74;21.07
62524;BME280;53689;56.878;60.672;2023-04-02T08:44:38;98767.97;;;23.77;20.83
62524;BME280;53689;56.878;60.672;2023-04-02T08:47:09;98763.59;;;23.76;20.75
62524;BME280;53689;56.878;60.672;2023-04-02T08:49:43;98760.75;;;23.84;20.94
62524;BME280;53689;56.878;60.672;2023-04-02T08:52:18;98764.66;;;23.81;20.92
62524;BME280;53689;56.878;60.672;2023-04-02T08:54:46;98762.59;;;23.83;20.86
62524;BME280;53689;56.878;60.672;2023-04-02T08:57:14;98765.47;;;23.75;20.71
62524;BME280;53689;56.878;60.672;2023-04-02T08:59:47;98762.13;;;23.73;22.29
62524;BME280;53689;56.878;60.672;2023-04-02T09:02:23;98760.06;;;23.75;21.06
62524;BME280;53689;56.878;60.672;2023-04-02T09:04:52;98763.41;;;23.77;20.71
62524;BME280;53689;56.878;60.672;2023-04-02T09:07:20;98763.59;;;23.76;21.05
62524;BME280;53689;56.878;60.672;2023-04-02T09:09:49;98760.06;;;23.75;20.34
62524;BME280;53689;56.878;60.672;2023-04-02T09:12:18;98764.66;;;23.75;20.67
62524;BME280;53689;56.878;60.672;2023-04-02T09:14:51;98765.91;;;23.79;20.85
62524;BME280;53689;56.878;60.672;2023-04-02T09:17:21;98755.13;;;23.86;21.01
62524;BME280;53689;56.878;60.672;2023-04-02T09:19:52;98761.78;;;23.83;20.44
62524;BME280;53689;56.878;60.672;2023-04-02T09:22:21;98761.94;;;23.75;20.93
62524;BME280;53689;56.878;60.672;2023-04-02T09:24:51;98754.03;;;23.80;21.05
62524;BME280;53689;56.878;60.672;2023-04-02T09:27:20;98753.44;;;23.84;20.79
62524;BME280;53689;56.878;60.672;2023-04-02T09:29:50;98756.19;;;23.91;20.08
62524;BME280;53689;56.878;60.672;2023-04-02T09:32:29;98753.69;;;23.90;20.55
62524;BME280;53689;56.878;60.672;2023-04-02T09:35:07;98762.66;;;23.90;21.03
62524;BME280;53689;56.878;60.672;2023-04-02T09:37:51;98763.50;;;23.97;20.62
62524;BME280;53689;56.878;60.672;2023-04-02T09:40:39;98757.69;;;24.01;20.31
62524;BME280;53689;56.878;60.672;2023-04-02T09:43:10;98756.84;;;24.00;20.15
62524;BME280;53689;56.878;60.672;2023-04-02T09:45:39;98758.50;;;24.01;20.15
62524;BME280;53689;56.878;60.672;2023-04-02T09:48:14;98753.31;;;24.00;20.40
62524;BME280;53689;56.878;60.672;2023-04-02T09:50:46;98761.19;;;23.94;19.92
62524;BME280;53689;56.878;60.672;2023-04-02T09:53:24;98758.72;;;24.00;20.58
62524;BME280;53689;56.878;60.672;2023-04-02T09:58:35;98754.00;;;24.08;20.22
62524;BME280;53689;56.878;60.672;2023-04-02T10:01:03;98749.00;;;24.05;20.11
62524;BME280;53689;56.878;60.672;2023-04-02T10:03:30;98748.31;;;24.03;19.93
62524;BME280;53689;56.878;60.672;2023-04-02T10:06:08;98744.44;;;24.13;20.08
62524;BME280;53689;56.878;60.672;2023-04-02T10:08:36;98747.38;;;24.11;20.23
62524;BME280;53689;56.878;60.672;2023-04-02T10:11:05;98757.75;;;24.14;19.87
62524;BME280;53689;56.878;60.672;2023-04-02T10:13:36;98757.16;;;24.19;19.78
62524;BME280;53689;56.878;60.672;2023-04-02T10:16:06;98753.59;;;24.18;19.96
62524;BME280;53689;56.878;60.672;2023-04-02T10:18:37;98753.00;;;24.23;19.26
62524;BME280;53689;56.878;60.672;2023-04-02T10:21:07;98751.13;;;24.23;19.13
62524;BME280;53689;56.878;60.672;2023-04-02T10:23:36;98750.75;;;24.33;19.11
62524;BME280;53689;56.878;60.672;2023-04-02T10:26:08;98747.22;;;24.33;19.32
62524;BME280;53689;56.878;60.672;2023-04-02T10:28:42;98741.56;;;24.28;19.92
62524;BME280;53689;56.878;60.672;2023-04-02T10:31:12;98744.94;;;24.30;19.96
62524;BME280;53689;56.878;60.672;2023-04-02T10:33:42;98740.31;;;24.23;19.64
62524;BME280;53689;56.878;60.672;2023-04-02T10:36:17;98737.63;;;24.23;19.70
62524;BME280;53689;56.878;60.672;2023-04-02T10:38:47;98744.53;;;24.46;19.16
62524;BME280;53689;56.878;60.672;2023-04-02T10:41:21;98742.84;;;24.38;19.44
62524;BME280;53689;56.878;60.672;2023-04-02T10:44:05;98739.50;;;24.30;19.54
62524;BME280;53689;56.878;60.672;2023-04-02T10:46:48;98745.31;;;24.27;19.25
62524;BME280;53689;56.878;60.672;2023-04-02T10:49:20;98744.56;;;24.53;19.39
62524;BME280;53689;56.878;60.672;2023-04-02T10:51:52;98742.47;;;24.48;18.83
62524;BME280;53689;56.878;60.672;2023-04-02T10:54:29;98750.78;;;24.40;18.97
62524;BME280;53689;56.878;60.672;2023-04-02T10:57:03;98744.31;;;24.41;18.54
62524;BME280;53689;56.878;60.672;2023-04-02T10:59:31;98744.31;;;24.41;18.95
62524;BME280;53689;56.878;60.672;2023-04-02T11:02:00;98744.94;;;24.50;19.18
62524;BME280;53689;56.878;60.672;2023-04-02T11:04:31;98743.72;;;24.52;18.58
62524;BME280;53689;56.878;60.672;2023-04-02T11:07:03;98739.16;;;24.53;19.14
62524;BME280;53689;56.878;60.672;2023-04-02T11:09:41;98733.09;;;24.51;19.01
62524;BME280;53689;56.878;60.672;2023-04-02T11:12:13;98736.63;;;24.51;19.07
62524;BME280;53689;56.878;60.672;2023-04-02T11:14:44;98735.41;;;24.54;18.94
62524;BME280;53689;56.878;60.672;2023-04-02T11:17:11;98728.75;;;24.57;18.46
62524;BME280;53689;56.878;60.672;2023-04-02T11:19:40;98733.91;;;24.38;19.78
62524;BME280;53689;56.878;60.672;2023-04-02T11:22:13;98731.59;;;24.42;18.84
62524;BME280;53689;56.878;60.672;2023-04-02T11:24:43;98728.88;;;24.28;18.81
62524;BME280;53689;56.878;60.672;2023-04-02T11:27:14;98732.78;;;24.05;19.62
62524;BME280;53689;56.878;60.672;2023-04-02T11:29:44;98733.28;;;23.87;21.15
62524;BME280;53689;56.878;60.672;2023-04-02T11:32:33;98731.47;;;24.01;21.24
62524;BME280;53689;56.878;60.672;2023-04-02T11:35:23;98728.34;;;23.97;20.56
62524;BME280;53689;56.878;60.672;2023-04-02T11:37:52;98727.09;;;24.00;21.37
62524;BME280;53689;56.878;60.672;2023-04-02T11:45:53;98722.78;;;24.06;19.68
62524;BME280;53689;56.878;60.672;2023-04-02T11:48:27;98726.47;;;23.91;20.95
62524;BME280;53689;56.878;60.672;2023-04-02T11:50:55;98731.44;;;23.94;20.70
62524;BME280;53689;56.878;60.672;2023-04-02T11:53:29;98730.19;;;23.90;20.64
62524;BME280;53689;56.878;60.672;2023-04-02T11:56:07;98724.13;;;23.88;20.04
62524;BME280;53689;56.878;60.672;2023-04-02T11:58:47;98725.19;;;23.87;21.57
62524;BME280;53689;56.878;60.672;2023-04-02T12:01:24;98723.31;;;23.81;21.80
62524;BME280;53689;56.878;60.672;2023-04-02T12:04:11;98720.00;;;23.92;20.46
62524;BME280;53689;56.878;60.672;2023-04-02T12:06:47;98722.31;;;23.95;19.89
62524;BME280;53689;56.878;60.672;2023-04-02T12:09:21;98717.28;;;23.86;21.81
62524;BME280;53689;56.878;60.672;2023-04-02T12:11:50;98720.63;;;23.94;19.43
62524;BME280;53689;56.878;60.672;2023-04-02T12:14:30;98716.88;;;23.95;19.97
62524;BME280;53689;56.878;60.672;2023-04-02T12:16:58;98718.75;;;23.95;20.02
62524;BME280;53689;56.878;60.672;2023-04-02T12:19:27;98715.34;;;24.15;19.76
62524;BME280;53689;56.878;60.672;2023-04-02T12:21:57;98717.38;;;24.06;18.97
62524;BME280;53689;56.878;60.672;2023-04-02T12:24:27;98719.47;;;24.10;18.96
62524;BME280;53689;56.878;60.672;2023-04-02T12:29:42;98722.50;;;23.94;20.79
62524;BME280;53689;56.878;60.672;2023-04-02T12:32:15;98718.56;;;23.96;20.43
62524;BME280;53689;56.878;60.672;2023-04-02T12:34:45;98712.28;;;23.89;20.15
62524;BME280;53689;56.878;60.672;2023-04-02T12:37:19;98713.75;;;23.85;20.88
62524;BME280;53689;56.878;60.672;2023-04-02T12:39:53;98716.88;;;23.89;20.11
62524;BME280;53689;56.878;60.672;2023-04-02T12:42:25;98713.59;;;24.00;19.35
62524;BME280;53689;56.878;60.672;2023-04-02T12:44:53;98718.09;;;23.86;21.82
62524;BME280;53689;56.878;60.672;2023-04-02T12:47:21;98717.59;;;23.62;20.85
62524;BME280;53689;56.878;60.672;2023-04-02T12:49:49;98727.00;;;23.80;21.34
62524;BME280;53689;56.878;60.672;2023-04-02T12:52:19;98720.94;;;23.64;20.72
62524;BME280;53689;56.878;60.672;2023-04-02T12:54:47;98727.53;;;23.55;21.07
62524;BME280;53689;56.878;60.672;2023-04-02T12:57:21;98725.56;;;23.77;22.03
62524;BME280;53689;56.878;60.672;2023-04-02T12:59:50;98727.56;;;23.62;20.84
62524;BME280;53689;56.878;60.672;2023-04-02T13:02:18;98734.72;;;23.76;19.08
62524;BME280;53689;56.878;60.672;2023-04-02T13:04:46;98726.78;;;23.75;21.14
62524;BME280;53689;56.878;60.672;2023-04-02T13:07:16;98725.13;;;23.74;21.15
62524;BME280;53689;56.878;60.672;2023-04-02T13:09:44;98735.13;;;23.80;21.13
62524;BME280;53689;56.878;60.672;2023-04-02T13:12:24;98727.44;;;23.83;19.94
62524;BME280;53689;56.878;60.672;2023-04-02T13:14:54;98727.44;;;23.77;21.43
62524;BME280;53689;56.878;60.672;2023-04-02T13:17:35;98729.25;;;23.69;21.76
62524;BME280;53689;56.878;60.672;2023-04-02T13:22:50;98728.47;;;23.76;20.99
62524;BME280;53689;56.878;60.672;2023-04-02T13:25:19;98724.72;;;23.77;21.53
62524;BME280;53689;56.878;60.672;2023-04-02T13:27:52;98731.41;;;23.81;20.60
62524;BME280;53689;56.878;60.672;2023-04-02T13:30:20;98726.78;;;23.75;21.85
62524;BME280;53689;56.878;60.672;2023-04-02T13:32:48;98734.31;;;23.86;20.34